sensor_id;sensor_type;location;lat;lon;timestamp;pressure;altitude;pressure_sealevel;temperature;humidity
5609;BME280;2826;51.354;9.588;2022-11-04T00:01:24;96749.59;;;10.78;100.00
5609;BME280;2826;51.354;9.588;2022-11-04T00:03:51;96745.41;;;10.76;100.00
5609;BME280;2826;51.354;9.588;2022-11-04T00:06:20;96753.09;;;10.77;100.00
5609;BME280;2826;51.354;9.588;2022-11-04T00:08:48;96751.03;;;10.82;100.00
5609;BME280;2826;51.354;9.588;2022-11-04T00:11:14;96751.25;;;10.79;100.00
5609;BME280;2826;51.354;9.588;2022-11-04T00:13:59;96755.41;;;10.82;100.00
5609;BME280;2826;51.354;9.588;2022-11-04T00:16:25;96762.34;;;10.81;100.00
5609;BME280;2826;51.354;9.588;2022-11-04T00:19:09;96756.53;;;10.78;100.00
5609;BME280;2826;51.354;9.588;2022-11-04T00:21:37;96759.41;;;10.73;100.00
5609;BME280;2826;51.354;9.588;2022-11-04T00:24:22;96771.03;;;10.67;100.00
5609;BME280;2826;51.354;9.588;2022-11-04T00:27:07;96758.88;;;10.68;100.00
5609;BME280;2826;51.354;9.588;2022-11-04T00:29:51;96763.69;;;10.59;100.00
5609;BME280;2826;51.354;9.588;2022-11-04T00:32:17;96762.97;;;10.57;100.00
5609;BME280;2826;51.354;9.588;2022-11-04T00:35:02;96761.50;;;10.53;100.00
5609;BME280;2826;51.354;9.588;2022-11-04T00:37:30;96769.38;;;10.52;100.00
5609;BME280;2826;51.354;9.588;2022-11-04T00:39:57;96771.13;;;10.51;100.00
5609;BME280;2826;51.354;9.588;2022-11-04T00:42:23;96776.41;;;10.50;100.00
5609;BME280;2826;51.354;9.588;2022-11-04T00:44:50;96795.28;;;10.52;100.00
5609;BME280;2826;51.354;9.588;2022-11-04T00:47:17;96774.72;;;10.49;100.00
5609;BME280;2826;51.354;9.588;2022-11-04T00:49:43;96799.84;;;10.48;100.00
5609;BME280;2826;51.354;9.588;2022-11-04T00:52:10;96800.84;;;10.45;100.00
5609;BME280;2826;51.354;9.588;2022-11-04T00:54:38;96799.06;;;10.46;100.00
5609;BME280;2826;51.354;9.588;2022-11-04T00:57:04;96796.56;;;10.44;100.00
5609;BME280;2826;51.354;9.588;2022-11-04T00:59:34;96811.38;;;10.42;100.00
5609;BME280;2826;51.354;9.588;2022-11-04T01:02:01;96821.19;;;10.37;100.00
5609;BME280;2826;51.354;9.588;2022-11-04T01:04:27;96815.25;;;10.35;100.00
5609;BME280;2826;51.354;9.588;2022-11-04T01:06:54;96830.06;;;10.33;100.00
5609;BME280;2826;51.354;9.588;2022-11-04T01:09:21;96826.72;;;10.31;100.00
5609;BME280;2826;51.354;9.588;2022-11-04T01:11:49;96823.41;;;10.29;100.00
5609;BME280;2826;51.354;9.588;2022-11-04T01:14:16;96828.75;;;10.26;100.00
5609;BME280;2826;51.354;9.588;2022-11-04T01:16:43;96825.44;;;10.24;100.00
5609;BME280;2826;51.354;9.588;2022-11-04T01:19:10;96828.84;;;10.24;100.00
5609;BME280;2826;51.354;9.588;2022-11-04T01:21:37;96843.84;;;10.19;100.00
5609;BME280;2826;51.354;9.588;2022-11-04T01:24:04;96845.69;;;10.17;100.00
5609;BME280;2826;51.354;9.588;2022-11-04T01:26:31;96848.94;;;10.20;100.00
5609;BME280;2826;51.354;9.588;2022-11-04T01:28:59;96855.03;;;10.19;100.00
5609;BME280;2826;51.354;9.588;2022-11-04T01:31:27;96853.38;;;10.18;100.00
5609;BME280;2826;51.354;9.588;2022-11-04T01:33:55;96838.00;;;10.15;100.00
5609;BME280;2826;51.354;9.588;2022-11-04T01:36:23;96836.28;;;10.16;100.00
5609;BME280;2826;51.354;9.588;2022-11-04T01:38:50;96845.69;;;10.17;100.00
5609;BME280;2826;51.354;9.588;2022-11-04T01:41:20;96838.84;;;10.16;100.00
5609;BME280;2826;51.354;9.588;2022-11-04T01:43:50;96844.13;;;10.14;100.00
5609;BME280;2826;51.354;9.588;2022-11-04T01:46:26;96836.34;;;10.14;100.00
5609;BME280;2826;51.354;9.588;2022-11-04T01:48:58;96802.78;;;9.98;100.00
5609;BME280;2826;51.354;9.588;2022-11-04T01:51:28;96826.09;;;10.13;100.00
5609;BME280;2826;51.354;9.588;2022-11-04T01:53:58;96832.91;;;10.14;100.00
5609;BME280;2826;51.354;9.588;2022-11-04T01:56:27;96822.47;;;10.15;100.00
5609;BME280;2826;51.354;9.588;2022-11-04T01:58:56;96826.00;;;10.14;100.00
5609;BME280;2826;51.354;9.588;2022-11-04T02:01:26;96817.38;;;10.14;100.00
5609;BME280;2826;51.354;9.588;2022-11-04T02:03:56;96816.75;;;10.10;100.00
5609;BME280;2826;51.354;9.588;2022-11-04T02:06:45;96820.06;;;10.12;100.00
5609;BME280;2826;51.354;9.588;2022-11-04T02:09:13;96825.16;;;10.14;100.00
5609;BME280;2826;51.354;9.588;2022-11-04T02:11:41;96819.34;;;10.10;100.00
5609;BME280;2826;51.354;9.588;2022-11-04T02:14:26;96817.66;;;10.09;100.00
5609;BME280;2826;51.354;9.588;2022-11-04T02:17:00;96812.56;;;10.07;100.00
5609;BME280;2826;51.354;9.588;2022-11-04T02:19:45;96824.69;;;10.07;100.00
5609;BME280;2826;51.354;9.588;2022-11-04T02:22:30;96829.22;;;10.03;100.00
5609;BME280;2826;51.354;9.588;2022-11-04T02:25:23;96831.06;;;10.01;100.00
5609;BME280;2826;51.354;9.588;2022-11-04T02:28:22;96836.31;;;10.00;100.00
5609;BME280;2826;51.354;9.588;2022-11-04T02:31:00;96839.03;;;9.98;100.00
5609;BME280;2826;51.354;9.588;2022-11-04T02:33:33;96840.22;;;9.92;100.00
5609;BME280;2826;51.354;9.588;2022-11-04T02:36:06;96847.22;;;9.90;100.00
5609;BME280;2826;51.354;9.588;2022-11-04T02:38:42;96855.19;;;9.87;100.00
5609;BME280;2826;51.354;9.588;2022-11-04T02:41:21;96863.84;;;9.86;100.00
5609;BME280;2826;51.354;9.588;2022-11-04T02:44:00;96864.97;;;9.82;100.00
5609;BME280;2826;51.354;9.588;2022-11-04T02:46:33;96881.31;;;9.83;100.00
5609;BME280;2826;51.354;9.588;2022-11-04T02:49:05;96888.16;;;9.84;100.00
5609;BME280;2826;51.354;9.588;2022-11-04T02:51:38;96890.03;;;9.82;100.00
5609;BME280;2826;51.354;9.588;2022-11-04T02:54:10;96902.81;;;9.85;100.00
5609;BME280;2826;51.354;9.588;2022-11-04T02:56:42;96904.72;;;9.81;100.00
5609;BME280;2826;51.354;9.588;2022-11-04T02:59:14;96907.88;;;9.86;100.00
5609;BME280;2826;51.354;9.588;2022-11-04T03:01:45;96897.34;;;9.89;100.00
5609;BME280;2826;51.354;9.588;2022-11-04T03:04:16;96914.44;;;9.92;100.00
5609;BME280;2826;51.354;9.588;2022-11-04T03:06:47;96907.78;;;9.88;100.00
5609;BME280;2826;51.354;9.588;2022-11-04T03:09:17;96913.25;;;9.83;100.00
5609;BME280;2826;51.354;9.588;2022-11-04T03:11:51;96917.72;;;9.79;100.00
5609;BME280;2826;51.354;9.588;2022-11-04T03:14:22;96939.56;;;9.75;100.00
5609;BME280;2826;51.354;9.588;2022-11-04T03:16:54;96929.47;;;9.71;100.00
5609;BME280;2826;51.354;9.588;2022-11-04T03:19:26;96934.47;;;9.74;100.00
5609;BME280;2826;51.354;9.588;2022-11-04T03:21:59;96931.31;;;9.69;100.00
5609;BME280;2826;51.354;9.588;2022-11-04T03:24:27;96929.13;;;9.61;99.46
5609;BME280;2826;51.354;9.588;2022-11-04T03:26:58;96935.88;;;9.63;98.68
5609;BME280;2826;51.354;9.588;2022-11-04T03:29:29;96947.53;;;9.56;99.02
5609;BME280;2826;51.354;9.588;2022-11-04T03:32:05;96955.44;;;9.53;99.22
5609;BME280;2826;51.354;9.588;2022-11-04T03:34:33;96952.28;;;9.48;99.60
5609;BME280;2826;51.354;9.588;2022-11-04T03:37:01;96950.84;;;9.42;98.04
5609;BME280;2826;51.354;9.588;2022-11-04T03:39:29;96953.53;;;9.40;95.86
5609;BME280;2826;51.354;9.588;2022-11-04T03:41:59;96953.53;;;9.40;94.32
5609;BME280;2826;51.354;9.588;2022-11-04T03:44:28;96960.53;;;9.38;95.29
5609;BME280;2826;51.354;9.588;2022-11-04T03:46:56;96960.78;;;9.34;95.77
5609;BME280;2826;51.354;9.588;2022-11-04T03:49:24;96959.28;;;9.30;96.97
5609;BME280;2826;51.354;9.588;2022-11-04T03:51:51;96958.69;;;9.24;97.26
5609;BME280;2826;51.354;9.588;2022-11-04T03:54:19;96963.13;;;9.22;98.07
5609;BME280;2826;51.354;9.588;2022-11-04T03:56:58;96957.25;;;9.19;97.38
5609;BME280;2826;51.354;9.588;2022-11-04T04:02:23;96974.03;;;9.11;97.32
5609;BME280;2826;51.354;9.588;2022-11-04T04:04:55;96978.63;;;9.06;97.25
5609;BME280;2826;51.354;9.588;2022-11-04T04:07:29;96981.44;;;9.01;97.63
5609;BME280;2826;51.354;9.588;2022-11-04T04:10:03;96984.44;;;8.94;96.84
5609;BME280;2826;51.354;9.588;2022-11-04T04:12:56;96978.97;;;8.82;96.72
5609;BME280;2826;51.354;9.588;2022-11-04T04:15:27;96968.38;;;8.71;96.72
5609;BME280;2826;51.354;9.588;2022-11-04T04:18:00;96990.63;;;8.73;96.89
5609;BME280;2826;51.354;9.588;2022-11-04T04:20:32;96993.59;;;8.66;96.96
5609;BME280;2826;51.354;9.588;2022-11-04T04:23:04;96983.50;;;8.61;97.51
5609;BME280;2826;51.354;9.588;2022-11-04T04:25:54;96987.22;;;8.55;97.48
5609;BME280;2826;51.354;9.588;2022-11-04T04:28:41;96966.09;;;8.29;97.49
5609;BME280;2826;51.354;9.588;2022-11-04T04:31:10;96997.25;;;8.44;97.66
5609;BME280;2826;51.354;9.588;2022-11-04T04:34:00;96990.56;;;8.40;97.85
5609;BME280;2826;51.354;9.588;2022-11-04T04:36:30;96997.53;;;8.37;98.15
5609;BME280;2826;51.354;9.588;2022-11-04T04:39:02;96990.84;;;8.33;98.44
5609;BME280;2826;51.354;9.588;2022-11-04T04:41:47;97001.50;;;8.27;98.58
5609;BME280;2826;51.354;9.588;2022-11-04T04:44:32;97006.94;;;8.21;99.47
5609;BME280;2826;51.354;9.588;2022-11-04T04:47:18;97011.44;;;8.17;99.33
5609;BME280;2826;51.354;9.588;2022-11-04T04:49:49;97009.97;;;8.11;99.75
5609;BME280;2826;51.354;9.588;2022-11-04T04:52:18;97003.28;;;8.07;100.00
5609;BME280;2826;51.354;9.588;2022-11-04T04:54:46;96999.03;;;8.06;100.00
5609;BME280;2826;51.354;9.588;2022-11-04T04:57:13;97011.28;;;8.03;100.00
5609;BME280;2826;51.354;9.588;2022-11-04T04:59:40;97017.13;;;8.06;100.00
5609;BME280;2826;51.354;9.588;2022-11-04T05:02:07;97012.13;;;8.03;100.00
5609;BME280;2826;51.354;9.588;2022-11-04T05:04:34;97008.69;;;8.03;100.00
5609;BME280;2826;51.354;9.588;2022-11-04T05:07:01;97011.28;;;8.03;100.00
5609;BME280;2826;51.354;9.588;2022-11-04T05:09:29;97008.75;;;8.01;100.00
5609;BME280;2826;51.354;9.588;2022-11-04T05:11:55;97004.44;;;8.02;100.00
5609;BME280;2826;51.354;9.588;2022-11-04T05:14:22;97009.59;;;8.02;100.00
5609;BME280;2826;51.354;9.588;2022-11-04T05:16:49;97013.91;;;8.01;100.00
5609;BME280;2826;51.354;9.588;2022-11-04T05:19:16;97024.19;;;8.03;100.00
5609;BME280;2826;51.354;9.588;2022-11-04T05:21:42;97043.97;;;8.02;100.00
5609;BME280;2826;51.354;9.588;2022-11-04T05:24:09;97055.22;;;8.01;100.00
5609;BME280;2826;51.354;9.588;2022-11-04T05:26:38;97049.31;;;7.99;100.00
5609;BME280;2826;51.354;9.588;2022-11-04T05:29:05;97051.06;;;7.98;100.00
5609;BME280;2826;51.354;9.588;2022-11-04T05:31:32;97052.78;;;7.98;100.00
5609;BME280;2826;51.354;9.588;2022-11-04T05:33:59;97044.06;;;8.01;100.00
5609;BME280;2826;51.354;9.588;2022-11-04T05:36:26;97058.78;;;7.98;100.00
5609;BME280;2826;51.354;9.588;2022-11-04T05:38:54;97048.97;;;7.88;100.00
5609;BME280;2826;51.354;9.588;2022-11-04T05:41:21;97060.81;;;7.92;100.00
5609;BME280;2826;51.354;9.588;2022-11-04T05:43:52;97066.97;;;7.89;100.00
5609;BME280;2826;51.354;9.588;2022-11-04T05:46:19;97067.16;;;7.84;100.00
5609;BME280;2826;51.354;9.588;2022-11-04T05:48:46;97070.66;;;7.83;100.00
5609;BME280;2826;51.354;9.588;2022-11-04T05:51:14;97075.00;;;7.83;100.00
5609;BME280;2826;51.354;9.588;2022-11-04T05:53:41;97090.56;;;7.81;100.00
5609;BME280;2826;51.354;9.588;2022-11-04T05:56:08;97098.44;;;7.78;100.00
5609;BME280;2826;51.354;9.588;2022-11-04T05:58:35;97113.06;;;7.78;100.00
5609;BME280;2826;51.354;9.588;2022-11-04T06:01:23;97120.00;;;7.77;100.00
5609;BME280;2826;51.354;9.588;2022-11-04T06:03:51;97118.41;;;7.75;100.00
5609;BME280;2826;51.354;9.588;2022-11-04T06:06:18;97107.16;;;7.76;100.00
5609;BME280;2826;51.354;9.588;2022-11-04T06:08:46;97098.63;;;7.74;100.00
5609;BME280;2826;51.354;9.588;2022-11-04T06:11:13;97111.63;;;7.72;100.00
5609;BME280;2826;51.354;9.588;2022-11-04T06:13:40;97103.94;;;7.70;100.00
5609;BME280;2826;51.354;9.588;2022-11-04T06:16:07;97098.72;;;7.72;100.00
5609;BME280;2826;51.354;9.588;2022-11-04T06:18:35;97093.63;;;7.70;100.00
5609;BME280;2826;51.354;9.588;2022-11-04T06:21:08;97100.53;;;7.70;100.00
5609;BME280;2826;51.354;9.588;2022-11-04T06:23:35;97097.09;;;7.69;100.00
5609;BME280;2826;51.354;9.588;2022-11-04T06:26:03;97103.88;;;7.72;100.00
5609;BME280;2826;51.354;9.588;2022-11-04T06:28:31;97109.03;;;7.72;100.00
5609;BME280;2826;51.354;9.588;2022-11-04T06:30:59;97108.06;;;7.75;100.00
5609;BME280;2826;51.354;9.588;2022-11-04T06:33:27;97108.19;;;7.71;100.00
5609;BME280;2826;51.354;9.588;2022-11-04T06:35:57;97105.69;;;7.70;100.00
5609;BME280;2826;51.354;9.588;2022-11-04T06:38:24;97110.91;;;7.68;100.00
5609;BME280;2826;51.354;9.588;2022-11-04T06:40:51;97108.38;;;7.67;100.00
5609;BME280;2826;51.354;9.588;2022-11-04T06:43:18;97113.72;;;7.64;100.00
5609;BME280;2826;51.354;9.588;2022-11-04T06:45:52;97108.56;;;7.64;100.00
5609;BME280;2826;51.354;9.588;2022-11-04T06:48:19;97109.38;;;7.64;100.00
5609;BME280;2826;51.354;9.588;2022-11-04T06:50:46;97114.53;;;7.64;100.00
5609;BME280;2826;51.354;9.588;2022-11-04T06:53:14;97118.88;;;7.64;100.00
5609;BME280;2826;51.354;9.588;2022-11-04T06:55:41;97120.59;;;7.63;100.00
5609;BME280;2826;51.354;9.588;2022-11-04T06:58:09;97122.28;;;7.64;100.00
5609;BME280;2826;51.354;9.588;2022-11-04T07:00:35;97125.69;;;7.65;100.00
5609;BME280;2826;51.354;9.588;2022-11-04T07:03:02;97132.53;;;7.66;100.00
5609;BME280;2826;51.354;9.588;2022-11-04T07:05:31;97135.97;;;7.66;100.00
5609;BME280;2826;51.354;9.588;2022-11-04T07:07:58;97136.78;;;7.67;100.00
5609;BME280;2826;51.354;9.588;2022-11-04T07:10:26;97144.44;;;7.68;100.00
5609;BME280;2826;51.354;9.588;2022-11-04T07:12:53;97146.00;;;7.72;100.00
5609;BME280;2826;51.354;9.588;2022-11-04T07:15:21;97161.34;;;7.76;100.00
5609;BME280;2826;51.354;9.588;2022-11-04T07:17:48;97175.00;;;7.78;100.00
5609;BME280;2826;51.354;9.588;2022-11-04T07:20:14;97178.31;;;7.81;100.00
5609;BME280;2826;51.354;9.588;2022-11-04T07:22:41;97178.94;;;7.87;100.00
5609;BME280;2826;51.354;9.588;2022-11-04T07:25:08;97183.00;;;7.92;100.00
5609;BME280;2826;51.354;9.588;2022-11-04T07:27:37;97174.13;;;7.98;100.00
5609;BME280;2826;51.354;9.588;2022-11-04T07:30:05;97186.03;;;8.01;100.00
5609;BME280;2826;51.354;9.588;2022-11-04T07:32:33;97181.53;;;8.06;100.00
5609;BME280;2826;51.354;9.588;2022-11-04T07:35:00;97179.66;;;8.09;100.00
5609;BME280;2826;51.354;9.588;2022-11-04T07:37:27;97189.75;;;8.14;100.00
5609;BME280;2826;51.354;9.588;2022-11-04T07:39:53;97185.28;;;8.18;100.00
5609;BME280;2826;51.354;9.588;2022-11-04T07:42:20;97190.47;;;8.18;100.00
5609;BME280;2826;51.354;9.588;2022-11-04T07:44:54;97190.59;;;8.15;100.00
5609;BME280;2826;51.354;9.588;2022-11-04T07:47:21;97198.28;;;8.16;100.00
5609;BME280;2826;51.354;9.588;2022-11-04T07:49:48;97195.56;;;8.19;100.00
5609;BME280;2826;51.354;9.588;2022-11-04T07:52:15;97196.25;;;8.23;100.00
5609;BME280;2826;51.354;9.588;2022-11-04T07:54:42;97194.34;;;8.27;100.00
5609;BME280;2826;51.354;9.588;2022-11-04T07:57:09;97191.72;;;8.28;100.00
5609;BME280;2826;51.354;9.588;2022-11-04T07:59:36;97189.81;;;8.32;100.00
5609;BME280;2826;51.354;9.588;2022-11-04T08:02:04;97186.34;;;8.33;100.00
5609;BME280;2826;51.354;9.588;2022-11-04T08:04:31;97189.59;;;8.36;100.00
5609;BME280;2826;51.354;9.588;2022-11-04T08:06:58;97194.78;;;8.36;100.00
5609;BME280;2826;51.354;9.588;2022-11-04T08:09:25;97203.16;;;8.42;100.00
5609;BME280;2826;51.354;9.588;2022-11-04T08:11:52;97202.16;;;8.44;100.00
5609;BME280;2826;51.354;9.588;2022-11-04T08:14:18;97197.72;;;8.48;100.00
5609;BME280;2826;51.354;9.588;2022-11-04T08:16:48;97212.22;;;8.50;100.00
5609;BME280;2826;51.354;9.588;2022-11-04T08:19:17;97219.84;;;8.54;100.00
5609;BME280;2826;51.354;9.588;2022-11-04T08:21:44;97222.28;;;8.57;100.00
5609;BME280;2826;51.354;9.588;2022-11-04T08:24:11;97224.75;;;8.60;100.00
5609;BME280;2826;51.354;9.588;2022-11-04T08:26:38;97228.00;;;8.63;100.00
5609;BME280;2826;51.354;9.588;2022-11-04T08:29:05;97224.38;;;8.68;100.00
5609;BME280;2826;51.354;9.588;2022-11-04T08:31:33;97235.47;;;8.70;100.00
5609;BME280;2826;51.354;9.588;2022-11-04T08:34:00;97232.00;;;8.71;100.00
5609;BME280;2826;51.354;9.588;2022-11-04T08:36:31;97227.44;;;8.76;100.00
5609;BME280;2826;51.354;9.588;2022-11-04T08:38:58;97230.72;;;8.80;99.85
5609;BME280;2826;51.354;9.588;2022-11-04T08:41:27;97221.91;;;8.84;99.67
5609;BME280;2826;51.354;9.588;2022-11-04T08:43:56;97221.75;;;8.87;98.88
5609;BME280;2826;51.354;9.588;2022-11-04T08:46:26;97220.84;;;8.88;98.92
5609;BME280;2826;51.354;9.588;2022-11-04T08:48:53;97214.81;;;8.87;98.86
5609;BME280;2826;51.354;9.588;2022-11-04T08:51:23;97216.53;;;8.88;98.53
5609;BME280;2826;51.354;9.588;2022-11-04T08:53:52;97224.19;;;8.90;98.03
5609;BME280;2826;51.354;9.588;2022-11-04T08:56:21;97220.53;;;8.94;98.59
5609;BME280;2826;51.354;9.588;2022-11-04T08:58:49;97216.22;;;8.95;98.15
5609;BME280;2826;51.354;9.588;2022-11-04T09:01:18;97207.97;;;8.86;96.53
5609;BME280;2826;51.354;9.588;2022-11-04T09:03:46;97222.06;;;8.98;97.36
5609;BME280;2826;51.354;9.588;2022-11-04T09:06:16;97227.78;;;9.05;96.94
5609;BME280;2826;51.354;9.588;2022-11-04T09:08:44;97216.53;;;9.06;96.49
5609;BME280;2826;51.354;9.588;2022-11-04T09:11:14;97221.41;;;9.12;97.15
5609;BME280;2826;51.354;9.588;2022-11-04T09:13:41;97210.06;;;9.15;96.39
5609;BME280;2826;51.354;9.588;2022-11-04T09:16:10;97211.50;;;9.21;96.00
5609;BME280;2826;51.354;9.588;2022-11-04T09:18:38;97208.53;;;9.28;95.80
5609;BME280;2826;51.354;9.588;2022-11-04T09:21:06;97208.31;;;9.33;95.25
5609;BME280;2826;51.354;9.588;2022-11-04T09:23:34;97206.25;;;9.40;94.90
5609;BME280;2826;51.354;9.588;2022-11-04T09:26:05;97211.25;;;9.43;95.11
5609;BME280;2826;51.354;9.588;2022-11-04T09:28:34;97215.16;;;9.52;94.06
5609;BME280;2826;51.354;9.588;2022-11-04T09:31:04;97190.41;;;9.46;93.83
5609;BME280;2826;51.354;9.588;2022-11-04T09:33:31;97194.91;;;9.60;94.10
5609;BME280;2826;51.354;9.588;2022-11-04T09:35:59;97187.78;;;9.64;94.49
5609;BME280;2826;51.354;9.588;2022-11-04T09:38:28;97186.13;;;9.63;93.04
5609;BME280;2826;51.354;9.588;2022-11-04T09:40:55;97186.81;;;9.66;93.00
5609;BME280;2826;51.354;9.588;2022-11-04T09:43:31;97195.00;;;9.75;93.15
5609;BME280;2826;51.354;9.588;2022-11-04T09:46:02;97199.13;;;9.79;92.93
5609;BME280;2826;51.354;9.588;2022-11-04T09:48:32;97193.59;;;9.85;92.42
5609;BME280;2826;51.354;9.588;2022-11-04T09:51:02;97205.06;;;9.97;92.07
5609;BME280;2826;51.354;9.588;2022-11-04T09:53:37;97215.13;;;10.03;91.13
5609;BME280;2826;51.354;9.588;2022-11-04T09:56:11;97214.94;;;10.06;90.56
5609;BME280;2826;51.354;9.588;2022-11-04T09:58:39;97223.31;;;10.12;90.16
5609;BME280;2826;51.354;9.588;2022-11-04T10:01:14;97216.72;;;10.06;89.13
5609;BME280;2826;51.354;9.588;2022-11-04T10:03:53;97228.16;;;10.18;89.24
5609;BME280;2826;51.354;9.588;2022-11-04T10:06:29;97221.75;;;10.25;89.20
5609;BME280;2826;51.354;9.588;2022-11-04T10:09:05;97228.34;;;10.31;88.57
5609;BME280;2826;51.354;9.588;2022-11-04T10:11:41;97234.72;;;10.41;88.23
5609;BME280;2826;51.354;9.588;2022-11-04T10:14:31;97236.38;;;10.42;86.72
5609;BME280;2826;51.354;9.588;2022-11-04T10:17:10;97238.91;;;10.44;86.19
5609;BME280;2826;51.354;9.588;2022-11-04T10:19:53;97243.22;;;10.43;86.09
5609;BME280;2826;51.354;9.588;2022-11-04T10:22:27;97245.16;;;10.40;85.57
5609;BME280;2826;51.354;9.588;2022-11-04T10:25:02;97251.47;;;10.52;84.92
5609;BME280;2826;51.354;9.588;2022-11-04T10:27:35;97244.34;;;10.55;83.77
5609;BME280;2826;51.354;9.588;2022-11-04T10:30:06;97246.53;;;10.63;83.82
5609;BME280;2826;51.354;9.588;2022-11-04T10:32:48;97236.81;;;10.67;84.52
5609;BME280;2826;51.354;9.588;2022-11-04T10:35:23;97231.56;;;10.68;82.71
5609;BME280;2826;51.354;9.588;2022-11-04T10:37:53;97206.53;;;10.51;83.31
5609;BME280;2826;51.354;9.588;2022-11-04T10:40:23;97221.09;;;10.70;83.21
5609;BME280;2826;51.354;9.588;2022-11-04T10:42:51;97218.25;;;10.75;83.85
5609;BME280;2826;51.354;9.588;2022-11-04T10:45:19;97210.97;;;10.81;83.89
5609;BME280;2826;51.354;9.588;2022-11-04T10:47:55;97212.00;;;10.93;82.77
5609;BME280;2826;51.354;9.588;2022-11-04T10:50:29;97207.31;;;11.00;84.71
5609;BME280;2826;51.354;9.588;2022-11-04T10:53:08;97207.22;;;11.02;82.19
5609;BME280;2826;51.354;9.588;2022-11-04T10:55:41;97203.59;;;10.90;82.61
5609;BME280;2826;51.354;9.588;2022-11-04T10:58:16;97208.53;;;10.94;83.63
5609;BME280;2826;51.354;9.588;2022-11-04T11:00:44;97209.53;;;10.92;83.50
5609;BME280;2826;51.354;9.588;2022-11-04T11:03:28;97217.81;;;10.98;83.77
5609;BME280;2826;51.354;9.588;2022-11-04T11:06:12;97220.59;;;11.10;83.26
5609;BME280;2826;51.354;9.588;2022-11-04T11:08:42;97215.44;;;11.24;82.84
5609;BME280;2826;51.354;9.588;2022-11-04T11:11:10;97218.28;;;11.36;82.24
5609;BME280;2826;51.354;9.588;2022-11-04T11:13:40;97223.56;;;11.49;81.50
5609;BME280;2826;51.354;9.588;2022-11-04T11:16:10;97230.47;;;11.50;81.73
5609;BME280;2826;51.354;9.588;2022-11-04T11:18:39;97228.91;;;11.62;80.87
5609;BME280;2826;51.354;9.588;2022-11-04T11:21:10;97224.09;;;11.70;80.56
5609;BME280;2826;51.354;9.588;2022-11-04T11:23:40;97224.34;;;11.80;79.86
5609;BME280;2826;51.354;9.588;2022-11-04T11:26:09;97218.88;;;11.85;79.36
5609;BME280;2826;51.354;9.588;2022-11-04T11:28:37;97221.19;;;11.89;79.90
5609;BME280;2826;51.354;9.588;2022-11-04T11:31:08;97213.34;;;12.06;80.08
5609;BME280;2826;51.354;9.588;2022-11-04T11:33:46;97211.50;;;12.08;77.88
5609;BME280;2826;51.354;9.588;2022-11-04T11:36:17;97208.72;;;12.11;78.17
5609;BME280;2826;51.354;9.588;2022-11-04T11:39:00;97210.16;;;12.30;77.13
5609;BME280;2826;51.354;9.588;2022-11-04T11:41:31;97218.03;;;12.43;76.76
5609;BME280;2826;51.354;9.588;2022-11-04T11:44:05;97212.38;;;12.36;75.38
5609;BME280;2826;51.354;9.588;2022-11-04T11:46:33;97216.63;;;12.51;76.49
5609;BME280;2826;51.354;9.588;2022-11-04T11:49:04;97209.56;;;12.53;74.76
5609;BME280;2826;51.354;9.588;2022-11-04T11:51:33;97211.34;;;12.53;74.80
5609;BME280;2826;51.354;9.588;2022-11-04T11:54:12;97205.63;;;12.61;73.86
5609;BME280;2826;51.354;9.588;2022-11-04T11:56:41;97200.81;;;12.54;75.01
5609;BME280;2826;51.354;9.588;2022-11-04T11:59:16;97206.41;;;12.48;74.63
5609;BME280;2826;51.354;9.588;2022-11-04T12:01:48;97202.88;;;12.77;75.31
5609;BME280;2826;51.354;9.588;2022-11-04T12:04:18;97194.94;;;12.93;74.33
5609;BME280;2826;51.354;9.588;2022-11-04T12:06:54;97198.63;;;13.16;73.46
5609;BME280;2826;51.354;9.588;2022-11-04T12:09:32;97192.59;;;13.16;72.19
5609;BME280;2826;51.354;9.588;2022-11-04T12:15:05;97195.59;;;13.10;71.67
5609;BME280;2826;51.354;9.588;2022-11-04T12:17:51;97209.16;;;13.28;71.01
5609;BME280;2826;51.354;9.588;2022-11-04T12:20:33;97205.72;;;13.27;71.07
5609;BME280;2826;51.354;9.588;2022-11-04T12:23:08;97213.66;;;13.39;71.44
5609;BME280;2826;51.354;9.588;2022-11-04T12:25:44;97219.13;;;13.62;70.43
5609;BME280;2826;51.354;9.588;2022-11-04T12:28:21;97215.16;;;13.69;69.03
5609;BME280;2826;51.354;9.588;2022-11-04T12:31:02;97203.50;;;13.75;69.64
5609;BME280;2826;51.354;9.588;2022-11-04T12:33:38;97213.81;;;13.76;68.59
5609;BME280;2826;51.354;9.588;2022-11-04T12:36:23;97214.97;;;13.72;67.23
5609;BME280;2826;51.354;9.588;2022-11-04T12:39:19;97234.25;;;13.69;66.86
5609;BME280;2826;51.354;9.588;2022-11-04T12:42:00;97236.97;;;13.40;66.66
5609;BME280;2826;51.354;9.588;2022-11-04T12:44:31;97241.09;;;13.17;68.50
5609;BME280;2826;51.354;9.588;2022-11-04T12:50:11;97232.88;;;12.83;69.27
5609;BME280;2826;51.354;9.588;2022-11-04T12:52:52;97229.78;;;12.63;70.47
5609;BME280;2826;51.354;9.588;2022-11-04T12:55:33;97227.56;;;12.57;70.59
5609;BME280;2826;51.354;9.588;2022-11-04T12:58:13;97233.00;;;12.39;73.03
5609;BME280;2826;51.354;9.588;2022-11-04T13:00:43;97235.13;;;12.32;72.79
5609;BME280;2826;51.354;9.588;2022-11-04T13:03:15;97233.91;;;12.23;73.94
5609;BME280;2826;51.354;9.588;2022-11-04T13:05:49;97231.53;;;12.20;73.61
5609;BME280;2826;51.354;9.588;2022-11-04T13:08:22;97227.72;;;12.11;75.17
5609;BME280;2826;51.354;9.588;2022-11-04T13:10:54;97236.06;;;12.17;74.23
5609;BME280;2826;51.354;9.588;2022-11-04T13:13:26;97237.66;;;12.19;74.39
5609;BME280;2826;51.354;9.588;2022-11-04T13:15:56;97234.31;;;12.17;74.35
5609;BME280;2826;51.354;9.588;2022-11-04T13:18:27;97224.47;;;12.08;72.43
5609;BME280;2826;51.354;9.588;2022-11-04T13:20:59;97229.59;;;12.09;73.41
5609;BME280;2826;51.354;9.588;2022-11-04T13:23:33;97245.56;;;12.18;74.25
5609;BME280;2826;51.354;9.588;2022-11-04T13:26:04;97239.59;;;12.15;72.77
5609;BME280;2826;51.354;9.588;2022-11-04T13:28:32;97242.03;;;12.19;73.30
5609;BME280;2826;51.354;9.588;2022-11-04T13:31:03;97238.88;;;12.13;73.26
5609;BME280;2826;51.354;9.588;2022-11-04T13:33:41;97253.69;;;12.11;73.29
5609;BME280;2826;51.354;9.588;2022-11-04T13:36:22;97252.88;;;12.11;74.45
5609;BME280;2826;51.354;9.588;2022-11-04T13:38:57;97249.53;;;12.09;74.42
5609;BME280;2826;51.354;9.588;2022-11-04T13:41:39;97252.88;;;12.11;74.44
5609;BME280;2826;51.354;9.588;2022-11-04T13:44:13;97252.97;;;12.09;73.97
5609;BME280;2826;51.354;9.588;2022-11-04T13:46:47;97247.19;;;12.04;74.00
5609;BME280;2826;51.354;9.588;2022-11-04T13:49:20;97251.53;;;12.03;75.04
5609;BME280;2826;51.354;9.588;2022-11-04T13:52:03;97266.69;;;12.11;74.69
5609;BME280;2826;51.354;9.588;2022-11-04T13:54:35;97271.63;;;12.16;74.31